Time;durP1;ratioP1;P1;durP2;ratioP2;P2;SDS_P1;SDS_P2;PMS_P1;PMS_P2;Temp;Humidity;BMP_temperature;BMP_pressure;BME280_temperature;BME280_humidity;BME280_pressure;Samples;Min_cycle;Max_cycle;Signal;HPM_P1;HPM_P2
2024/01/19 00:01:40;;;;;;;34.65;21.80;;;-3.40;99.90;;;;;;4906362;29;20126;-92
2024/01/19 00:04:47;;;;;;;30.80;19.83;;;-3.60;99.90;;;;;;4902952;29;20057;-92
2024/01/19 00:07:20;;;;;;;29.95;20.10;;;-3.60;99.90;;;;;;4911821;29;20040;-92
2024/01/19 00:10:23;;;;;;;;;;;;;;;;;;;;;
2024/01/19 00:13:13;;;;;;;36.55;21.67;;;-3.60;99.90;;;;;;4925588;29;20095;-93
2024/01/19 00:18:19;;;;;;;35.22;22.08;;;-3.60;99.90;;;;;;5054725;23;20050;-94
2024/01/19 00:21:10;;;;;;;35.80;22.42;;;-3.60;99.90;;;;;;4997645;28;20030;-93
2024/01/19 00:24:12;;;;;;;35.58;22.27;;;-3.60;99.90;;;;;;4960875;28;20091;-93
2024/01/19 00:26:50;;;;;;;;;;;;;;;;;;;;;
2024/01/19 00:35:55;;;;;;;32.25;22.63;;;-3.70;99.90;;;;;;4992274;28;20034;-93
2024/01/19 00:38:41;;;;;;;40.97;24.80;;;-3.70;99.90;;;;;;4982604;28;20023;-93
2024/01/19 00:41:10;;;;;;;36.33;22.00;;;-3.70;99.90;;;;;;4987692;28;20023;-93
2024/01/19 00:43:57;;;;;;;;;;;;;;;;;;;;;
2024/01/19 00:46:30;;;;;;;;;;;-3.70;99.90;;;;;;4956828;28;20118;-93
2024/01/19 00:49:08;;;;;;;30.80;18.45;;;-3.80;99.90;;;;;;4986837;28;19906;-91
2024/01/19 00:51:44;;;;;;;35.90;24.73;;;-3.80;99.90;;;;;;4985082;28;20050;-93
2024/01/19 00:54:16;;;;;;;37.78;24.98;;;-3.80;99.90;;;;;;4986730;28;20085;-93
2024/01/19 00:56:55;;;;;;;36.33;23.80;;;-3.70;99.90;;;;;;5001174;28;20559;-94
2024/01/19 00:59:39;;;;;;;38.47;20.63;;;-3.70;99.90;;;;;;4979982;28;20031;-93
2024/01/19 01:02:19;;;;;;;;;;;;;;;;;;;;;
2024/01/19 01:04:49;;;;;;;35.00;23.80;;;-3.70;99.90;;;;;;4982446;28;20079;-94
2024/01/19 01:07:43;;;;;;;36.80;21.42;;;-3.70;99.90;;;;;;5010096;23;20157;-93
2024/01/19 01:10:57;;;;;;;38.92;22.35;;;-3.60;99.90;;;;;;4993521;28;20027;-91
2024/01/19 01:13:23;;;;;;;40.80;20.48;;;-3.50;99.90;;;;;;4987189;28;20062;-93
2024/01/19 01:19:12;;;;;;;45.85;23.50;;;-3.40;99.90;;;;;;5030151;23;20106;-93
2024/01/19 01:22:23;;;;;;;41.35;21.52;;;-3.40;99.90;;;;;;4894571;29;20107;-92
2024/01/19 01:25:46;;;;;;;;;;;;;;;;;;;;;
2024/01/19 01:28:38;;;;;;;39.30;21.73;;;-3.20;99.90;;;;;;4977893;28;20106;-92
2024/01/19 01:31:31;;;;;;;41.83;20.73;;;-3.20;99.90;;;;;;4998723;28;20030;-93
2024/01/19 01:37:46;;;;;;;38.53;22.10;;;-3.10;99.90;;;;;;4975495;28;20596;-94
2024/01/19 01:43:59;;;;;;;;;;;;;;;;;;;;;
2024/01/19 01:46:54;;;;;;;;;;;;;;;;;;;;;
2024/01/19 01:49:35;;;;;;;45.05;26.75;;;-3.00;99.90;;;;;;4990682;28;20066;-93
2024/01/19 01:55:17;;;;;;;;;;;;;;;;;;;;;
2024/01/19 02:03:53;;;;;;;46.38;23.80;;;-2.60;99.90;;;;;;5522911;23;20045;-93
2024/01/19 02:06:57;;;;;;;;;;;;;;;;;;;;;
2024/01/19 02:10:18;;;;;;;;;;;;;;;;;;;;;
2024/01/19 02:41:35;;;;;;;36.80;22.48;;;-2.80;99.90;;;;;;4921795;29;20040;-92
2024/01/19 02:47:22;;;;;;;43.47;22.25;;;-2.80;99.90;;;;;;4904597;29;20532;-92
2024/01/19 02:50:16;;;;;;;55.22;23.75;;;-2.90;99.90;;;;;;4905843;29;20024;-92
2024/01/19 03:02:16;;;;;;;;;;;;;;;;;;;;;
2024/01/19 03:05:50;;;;;;;48.72;24.35;;;-2.80;99.90;;;;;;4927173;29;20119;-93
2024/01/19 03:09:28;;;;;;;48.08;24.85;;;-2.80;99.90;;;;;;4914948;29;20039;-93
2024/01/19 03:12:28;;;;;;;44.22;21.25;;;-2.70;99.90;;;;;;4902975;29;20033;-92
2024/01/19 03:26:26;;;;;;;43.83;22.33;;;-2.50;99.90;;;;;;4881858;29;20070;-93
2024/01/19 03:43:20;;;;;;;47.17;23.95;;;-2.50;99.90;;;;;;4931115;29;20044;-93
2024/01/19 03:47:00;;;;;;;;;;;;;;;;;;;;;
2024/01/19 04:39:53;;;;;;;46.20;25.20;;;-2.70;99.90;;;;;;4662817;23;20062;-92
2024/01/19 04:46:04;;;;;;;37.65;23.42;;;-2.70;99.90;;;;;;4976395;28;20107;-91
2024/01/19 04:48:30;;;;;;;46.78;22.50;;;-2.80;99.90;;;;;;4964196;28;20019;-91
2024/01/19 04:51:07;;;;;;;46.58;25.15;;;-2.80;99.90;;;;;;4961786;28;20035;-93
2024/01/19 04:54:02;;;;;;;47.38;22.42;;;-2.80;99.90;;;;;;4982881;28;20031;-93
2024/01/19 04:56:46;;;;;;;47.83;23.45;;;-2.80;99.90;;;;;;4958504;28;20039;-92
2024/01/19 04:59:46;;;;;;;47.85;24.10;;;-2.90;99.90;;;;;;4968282;28;20023;-92
2024/01/19 05:02:24;;;;;;;46.90;25.63;;;-2.80;99.90;;;;;;4994903;28;20042;-93
2024/01/19 05:04:50;;;;;;;49.28;27.40;;;-2.90;99.90;;;;;;4976862;28;20026;-92
2024/01/19 05:08:12;;;;;;;;;;;;;;;;;;;;;
2024/01/19 05:11:15;;;;;;;42.05;24.20;;;-2.90;99.90;;;;;;4946163;28;20358;-92
2024/01/19 05:14:11;;;;;;;45.22;24.17;;;-2.90;99.90;;;;;;4977135;28;20094;-93
2024/01/19 05:16:49;;;;;;;49.72;26.35;;;-3.00;99.90;;;;;;4961395;28;20065;-92
2024/01/19 05:19:15;;;;;;;48.85;27.17;;;-2.90;99.90;;;;;;4982550;28;20023;-92
2024/01/19 05:21:52;;;;;;;;;;;;;;;;;;;;;
2024/01/19 05:24:30;;;;;;;46.78;22.63;;;-2.90;99.90;;;;;;4958768;28;20102;-92
2024/01/19 05:30:48;;;;;;;;;;;;;;;;;;;;;
2024/01/19 05:39:47;;;;;;;45.35;23.98;;;-3.20;99.90;;;;;;4960847;28;20047;-91
2024/01/19 05:42:30;;;;;;;54.65;24.77;;;-3.20;99.90;;;;;;4976075;28;20039;-91
2024/01/19 05:45:21;;;;;;;47.92;25.02;;;-3.30;99.90;;;;;;4980096;28;20036;-92
2024/01/19 05:48:35;;;;;;;51.47;23.85;;;-3.30;99.90;;;;;;4979814;28;20042;-91
2024/01/19 05:52:00;;;;;;;50.22;24.33;;;-3.20;99.90;;;;;;4963090;28;20045;-91
2024/01/19 05:54:26;;;;;;;45.10;22.98;;;-3.20;99.90;;;;;;4927518;29;20040;-93
2024/01/19 06:00:06;;;;;;;52.90;28.42;;;-3.20;99.90;;;;;;3246704;26;20115;-92
2024/01/19 06:02:55;;;;;;;52.45;26.50;;;-3.20;99.90;;;;;;4970410;28;20027;-92
2024/01/19 06:05:20;;;;;;;54.78;30.30;;;-3.20;99.90;;;;;;4959322;28;20121;-93
2024/01/19 06:08:19;;;;;;;58.65;27.27;;;-3.20;99.90;;;;;;4941293;28;20063;-93
2024/01/19 06:10:51;;;;;;;53.17;26.75;;;-3.20;99.90;;;;;;4948589;29;20034;-92
2024/01/19 06:13:28;;;;;;;53.58;26.00;;;-3.20;99.90;;;;;;4940288;29;20032;-94
2024/01/19 06:16:06;;;;;;;60.70;30.42;;;-3.20;99.90;;;;;;4937413;29;20028;-92
2024/01/19 06:21:50;;;;;;;51.65;26.95;;;-3.30;99.90;;;;;;4947590;29;20071;-92
2024/01/19 06:27:35;;;;;;;;;;;;;;;;;;;;;
2024/01/19 06:30:33;;;;;;;;;;;;;;;;;;;;;
2024/01/19 06:36:11;;;;;;;53.22;27.77;;;-3.30;99.90;;;;;;4925485;29;20039;-91
2024/01/19 06:45:18;;;;;;;43.22;25.70;;;-3.40;99.90;;;;;;4876825;29;19908;-91
2024/01/19 06:48:12;;;;;;;62.92;27.33;;;-3.50;99.90;;;;;;4858399;29;20102;-92
2024/01/19 06:51:14;;;;;;;55.03;27.90;;;-3.50;99.90;;;;;;4862626;29;20049;-92
2024/01/19 06:54:02;;;;;;;65.03;28.42;;;-3.50;99.90;;;;;;4902710;29;20036;-92
2024/01/19 07:00:27;;;;;;;;;;;;;;;;;;;;;
2024/01/19 07:02:54;;;;;;;52.38;24.42;;;-3.50;99.90;;;;;;4931749;29;20104;-93
2024/01/19 07:20:05;;;;;;;50.30;27.63;;;-3.50;99.90;;;;;;4948482;29;20137;-93
2024/01/19 07:22:42;;;;;;;61.97;31.52;;;-3.50;99.90;;;;;;4956789;28;20046;-96
2024/01/19 07:25:16;;;;;;;62.83;31.35;;;-3.50;99.90;;;;;;4956140;28;20030;-94
2024/01/19 07:27:42;;;;;;;58.95;27.38;;;-3.40;99.90;;;;;;5004458;28;20038;-93
2024/01/19 07:30:23;;;;;;;64.00;27.73;;;-3.40;99.90;;;;;;5003178;28;20031;-93
2024/01/19 07:32:50;;;;;;;65.00;27.58;;;-3.30;99.90;;;;;;4994538;28;20027;-91
2024/01/19 07:35:17;;;;;;;60.53;27.95;;;-3.30;99.90;;;;;;4985071;28;20038;-94
2024/01/19 07:37:51;;;;;;;66.63;27.80;;;-3.30;99.90;;;;;;4983119;28;20034;-94
2024/01/19 07:40:27;;;;;;;67.40;29.75;;;-3.20;99.90;;;;;;4964419;28;20026;-94
2024/01/19 07:42:53;;;;;;;59.05;30.08;;;-3.20;99.90;;;;;;4994612;28;20034;-91
2024/01/19 07:45:29;;;;;;;71.40;30.77;;;-3.20;99.90;;;;;;5000416;28;20427;-92
2024/01/19 07:47:55;;;;;;;63.38;28.65;;;-3.10;99.90;;;;;;4984076;28;20069;-92
2024/01/19 07:50:30;;;;;;;73.53;33.90;;;-3.10;99.90;;;;;;5007612;28;20026;-91
2024/01/19 07:53:10;;;;;;;72.60;33.30;;;-3.10;99.90;;;;;;5006557;28;20030;-91
2024/01/19 07:55:36;;;;;;;64.65;30.67;;;-3.10;99.90;;;;;;5005967;28;20166;-92
2024/01/19 07:58:15;;;;;;;71.65;31.05;;;-3.00;99.90;;;;;;4998719;28;20102;-92
2024/01/19 08:00:42;;;;;;;64.75;32.13;;;-3.00;99.90;;;;;;5004237;28;20102;-92
2024/01/19 08:03:18;;;;;;;72.32;34.22;;;-3.00;99.90;;;;;;4994344;28;20035;-91
2024/01/19 08:05:49;;;;;;;63.58;31.45;;;-3.00;99.90;;;;;;5004128;28;20018;-91
2024/01/19 08:08:18;;;;;;;63.63;26.45;;;-3.00;99.90;;;;;;5000954;28;20089;-92
2024/01/19 08:10:51;;;;;;;64.43;29.83;;;-2.80;99.90;;;;;;5113930;23;20045;-92
2024/01/19 08:13:35;;;;;;;70.72;33.20;;;-2.90;99.90;;;;;;5004381;28;20041;-90
2024/01/19 08:16:03;;;;;;;69.35;30.60;;;-2.90;99.90;;;;;;5038413;23;20121;-91
2024/01/19 08:18:42;;;;;;;68.85;31.38;;;-2.90;99.90;;;;;;4989693;28;20034;-91
2024/01/19 08:21:08;;;;;;;73.18;30.98;;;-2.90;99.90;;;;;;4999159;28;20129;-91
2024/01/19 08:23:41;;;;;;;74.07;30.70;;;-2.90;99.90;;;;;;4985599;28;20089;-92
2024/01/19 08:26:08;;;;;;;76.22;31.67;;;-2.90;99.90;;;;;;4987607;28;20498;-91
2024/01/19 08:28:47;;;;;;;77.40;32.88;;;-2.80;99.90;;;;;;4988961;28;20481;-91
2024/01/19 08:31:14;;;;;;;65.95;32.08;;;-2.80;99.90;;;;;;5015712;28;20038;-91
2024/01/19 08:33:42;;;;;;;76.25;32.63;;;-2.70;99.90;;;;;;5000622;28;20501;-91
2024/01/19 08:36:23;;;;;;;79.28;33.80;;;-2.70;99.90;;;;;;4989134;28;20023;-92
2024/01/19 08:39:03;;;;;;;69.40;30.75;;;-2.60;99.90;;;;;;4988779;28;20110;-92
2024/01/19 08:41:42;;;;;;;65.57;30.27;;;-2.70;99.90;;;;;;4987300;28;20609;-93
2024/01/19 08:44:18;;;;;;;76.03;34.80;;;-2.60;99.90;;;;;;4987196;28;20042;-92
2024/01/19 08:46:54;;;;;;;77.35;33.67;;;-2.60;99.90;;;;;;4978617;28;20034;-91
2024/01/19 08:49:22;;;;;;;75.60;33.50;;;-2.60;99.90;;;;;;5005108;28;20030;-91
2024/01/19 08:52:07;;;;;;;;;;;;;;;;;;;;;
2024/01/19 08:54:45;;;;;;;74.07;32.67;;;-2.50;99.90;;;;;;4982125;28;20042;-94
2024/01/19 08:57:11;;;;;;;62.72;28.48;;;-2.50;99.90;;;;;;4977044;28;20035;-91
2024/01/19 08:59:46;;;;;;;68.18;32.38;;;-2.40;99.90;;;;;;4997112;28;20030;-94
2024/01/19 09:02:15;;;;;;;81.43;33.33;;;-2.40;99.90;;;;;;5002991;28;20041;-90
2024/01/19 09:04:41;;;;;;;77.88;32.42;;;-2.50;99.90;;;;;;5003120;28;20030;-91
2024/01/19 09:07:07;;;;;;;61.22;27.02;;;-2.50;99.90;;;;;;5002995;28;20302;-91
2024/01/19 09:09:40;;;;;;;75.90;34.28;;;-2.50;99.90;;;;;;4998953;28;20023;-91
2024/01/19 09:12:08;;;;;;;66.35;30.70;;;-2.50;99.90;;;;;;5002704;28;20094;-91
2024/01/19 09:14:34;;;;;;;72.57;31.85;;;-2.40;99.90;;;;;;4985926;28;20026;-90
2024/01/19 09:17:00;;;;;;;73.30;33.97;;;-2.40;99.90;;;;;;4997049;28;20361;-91
2024/01/19 09:19:26;;;;;;;66.97;29.48;;;-2.40;99.90;;;;;;4986789;28;20023;-92
2024/01/19 09:21:57;;;;;;;77.80;30.88;;;-2.40;99.90;;;;;;4982655;28;20852;-90
2024/01/19 09:24:24;;;;;;;72.63;32.75;;;-2.40;99.90;;;;;;4999754;28;20034;-91
2024/01/19 09:26:50;;;;;;;70.63;31.83;;;-2.40;99.90;;;;;;4993610;28;20034;-91
2024/01/19 09:29:16;;;;;;;61.05;27.95;;;-2.50;99.90;;;;;;4981486;28;20571;-91
2024/01/19 09:31:55;;;;;;;65.95;30.67;;;-2.50;99.90;;;;;;4985041;28;20604;-92
2024/01/19 09:34:24;;;;;;;61.47;28.67;;;-2.50;99.90;;;;;;4982156;28;20080;-90
2024/01/19 09:36:49;;;;;;;;;;;-2.50;99.90;;;;;;5002021;28;20026;-90
2024/01/19 09:39:27;;;;;;;55.00;27.30;;;-2.50;99.90;;;;;;4978832;28;19918;-91
2024/01/19 09:42:23;;;;;;;57.47;25.20;;;-2.50;99.90;;;;;;4982022;28;20026;-92
2024/01/19 09:45:10;;;;;;;64.30;25.52;;;-2.50;99.90;;;;;;4988698;28;20410;-91
2024/01/19 09:48:00;;;;;;;67.22;28.70;;;-2.40;99.90;;;;;;4990861;28;20043;-91
2024/01/19 09:50:36;;;;;;;61.63;27.70;;;-2.30;99.90;;;;;;4981599;28;20038;-91
2024/01/19 09:53:08;;;;;;;64.82;29.00;;;-2.20;99.90;;;;;;4982274;28;20116;-90
2024/01/19 09:55:34;;;;;;;57.10;27.10;;;-2.10;99.90;;;;;;4985908;28;20042;-91
2024/01/19 09:58:00;;;;;;;61.05;29.15;;;-2.00;99.90;;;;;;4996731;28;20045;-91
2024/01/19 10:00:31;;;;;;;62.30;29.63;;;-2.00;99.90;;;;;;5002497;28;20045;-90
2024/01/19 10:03:22;;;;;;;63.00;28.45;;;-2.00;99.90;;;;;;5006521;28;20058;-91
2024/01/19 10:05:52;;;;;;;64.40;27.60;;;-1.80;99.90;;;;;;4986135;28;20019;-92
2024/01/19 10:08:19;;;;;;;59.47;27.95;;;-1.70;99.90;;;;;;4981351;28;20633;-93
2024/01/19 10:11:06;;;;;;;60.88;27.45;;;-1.60;99.90;;;;;;5001641;28;20725;-92
2024/01/19 10:14:16;;;;;;;58.38;26.85;;;-1.40;99.90;;;;;;4984245;28;20074;-92
2024/01/19 10:16:57;;;;;;;62.45;28.17;;;-1.30;99.90;;;;;;4927733;29;20046;-92
2024/01/19 10:19:27;;;;;;;55.88;30.52;;;-1.20;99.90;;;;;;4935991;29;20050;-92
2024/01/19 10:22:28;;;;;;;57.25;26.10;;;-1.10;99.90;;;;;;4971548;28;20077;-92
2024/01/19 10:25:10;;;;;;;62.35;28.60;;;-1.00;99.90;;;;;;5001142;28;20034;-91
2024/01/19 10:27:59;;;;;;;56.60;26.70;;;-1.20;99.90;;;;;;4989952;28;20030;-91
2024/01/19 10:30:37;;;;;;;61.33;24.25;;;-1.10;99.90;;;;;;5006064;28;20035;-91
2024/01/19 10:33:08;;;;;;;57.97;28.45;;;-1.00;99.90;;;;;;4991777;28;20035;-91
2024/01/19 10:35:58;;;;;;;51.17;24.33;;;-0.80;99.90;;;;;;4992951;28;20061;-91
2024/01/19 10:38:32;;;;;;;55.30;25.27;;;-0.70;99.90;;;;;;4982323;28;20046;-92
2024/01/19 10:41:01;;;;;;;50.55;27.75;;;-0.60;99.90;;;;;;4982532;28;20121;-92
2024/01/19 10:43:37;;;;;;;55.67;26.92;;;-0.70;99.90;;;;;;5007863;28;20045;-90
2024/01/19 10:46:40;;;;;;;57.55;26.63;;;-0.70;99.90;;;;;;5003013;28;20039;-91
2024/01/19 10:49:16;;;;;;;53.53;26.38;;;-0.60;99.90;;;;;;4969055;28;20035;-92
2024/01/19 10:52:02;;;;;;;63.83;30.17;;;-0.60;99.90;;;;;;5001357;28;20110;-93
2024/01/19 10:54:42;;;;;;;51.63;24.80;;;-0.60;99.90;;;;;;4989279;28;20106;-92
2024/01/19 10:57:11;;;;;;;59.25;26.20;;;-0.90;99.90;;;;;;4982095;28;20026;-92
2024/01/19 10:59:45;;;;;;;56.88;24.40;;;-0.90;99.90;;;;;;4985126;28;20030;-91
2024/01/19 11:03:06;;;;;;;;;;;;;;;;;;;;;
2024/01/19 11:06:06;;;;;;;;;;;;;;;;;;;;;
2024/01/19 11:08:43;;;;;;;55.15;25.73;;;-0.80;99.90;;;;;;4793852;26;20783;-91
2024/01/19 11:12:04;;;;;;;53.80;26.83;;;-0.80;99.90;;;;;;4973399;28;20050;-93
2024/01/19 11:14:38;;;;;;;55.05;27.75;;;-0.50;99.90;;;;;;4963816;28;20066;-93
2024/01/19 11:17:04;;;;;;;57.42;26.25;;;-0.30;99.90;;;;;;4967951;28;20090;-91
2024/01/19 11:19:34;;;;;;;45.72;25.30;;;-0.10;99.90;;;;;;4953324;28;20113;-92
2024/01/19 11:22:18;;;;;;;56.33;27.55;;;-0.10;99.90;;;;;;4972020;28;20050;-90
2024/01/19 11:25:08;;;;;;;57.50;26.10;;;0.00;99.90;;;;;;4976554;28;20042;-91
2024/01/19 11:28:23;;;;;;;50.75;25.13;;;0.10;99.90;;;;;;4976340;28;20058;-92
2024/01/19 11:30:56;;;;;;;53.72;24.25;;;0.60;99.90;;;;;;4971774;28;20020;-92
2024/01/19 11:33:31;;;;;;;56.15;25.00;;;0.80;99.90;;;;;;4972322;28;20026;-91
2024/01/19 11:42:05;;;;;;;47.25;24.75;;;0.20;99.90;;;;;;4991655;28;20039;-94
2024/01/19 11:45:09;;;;;;;51.35;26.05;;;0.10;99.90;;;;;;4991140;28;20045;-94
2024/01/19 11:47:58;;;;;;;44.75;23.63;;;0.10;99.90;;;;;;4984985;28;20098;-93
2024/01/19 11:50:42;;;;;;;57.03;26.35;;;0.10;99.90;;;;;;4948182;28;20054;-95
2024/01/19 11:53:16;;;;;;;53.72;26.55;;;0.00;99.90;;;;;;4988129;28;20018;-93
2024/01/19 11:55:45;;;;;;;58.47;26.92;;;-0.10;99.90;;;;;;4976151;28;20038;-96
2024/01/19 12:02:45;;;;;;;52.60;24.67;;;0.00;99.90;;;;;;4928055;29;20038;-94
2024/01/19 12:05:12;;;;;;;53.17;27.50;;;0.00;99.90;;;;;;4903943;29;20040;-96
2024/01/19 12:07:45;;;;;;;52.33;24.40;;;-0.10;99.90;;;;;;4930959;28;20032;-94
2024/01/19 12:10:12;;;;;;;52.63;27.15;;;0.00;99.90;;;;;;4984057;28;20066;-96
2024/01/19 12:12:39;;;;;;;51.55;24.63;;;0.10;99.90;;;;;;4991286;28;20078;-94
2024/01/19 12:15:14;;;;;;;45.92;22.38;;;0.10;99.90;;;;;;4988937;28;20027;-94
2024/01/19 12:17:45;;;;;;;;;;;0.00;99.90;;;;;;4979655;28;20042;-94
2024/01/19 12:20:16;;;;;;;50.28;23.13;;;0.00;99.90;;;;;;4980035;28;19914;-93
2024/01/19 12:22:44;;;;;;;45.25;24.35;;;-0.10;99.90;;;;;;4984789;28;20033;-95
2024/01/19 12:25:19;;;;;;;46.83;22.27;;;0.10;99.90;;;;;;4991532;28;20498;-96
2024/01/19 12:27:48;;;;;;;46.65;21.55;;;0.00;99.90;;;;;;4972513;28;20034;-95
2024/01/19 12:32:50;;;;;;;47.15;21.95;;;0.00;99.90;;;;;;5021761;23;19929;-91
2024/01/19 12:35:19;;;;;;;46.92;25.13;;;0.10;99.90;;;;;;4967628;28;20023;-92
2024/01/19 12:37:58;;;;;;;51.03;24.98;;;0.00;99.90;;;;;;4965370;28;20042;-92
2024/01/19 12:41:03;;;;;;;;;;;;;;;;;;;;;
2024/01/19 12:43:41;;;;;;;53.22;24.42;;;-0.10;99.90;;;;;;4939795;28;20050;-91
2024/01/19 12:46:27;;;;;;;47.60;21.83;;;0.00;99.90;;;;;;4979469;28;20020;-91
2024/01/19 12:49:13;;;;;;;46.08;24.50;;;0.20;99.90;;;;;;4978007;28;20066;-90
2024/01/19 12:51:48;;;;;;;46.83;23.73;;;0.20;99.90;;;;;;4959672;28;20043;-89
2024/01/19 12:54:15;;;;;;;44.15;22.60;;;0.20;99.90;;;;;;4966220;28;20023;-90
2024/01/19 12:56:48;;;;;;;54.97;22.30;;;0.40;99.90;;;;;;4964218;28;20319;-90
2024/01/19 12:59:21;;;;;;;46.13;23.38;;;0.40;99.90;;;;;;4961967;28;20094;-90
2024/01/19 13:01:55;;;;;;;46.42;21.67;;;0.30;99.90;;;;;;4963803;28;20100;-90
2024/01/19 13:04:22;;;;;;;52.90;23.20;;;0.30;99.90;;;;;;4979928;28;20039;-90
2024/01/19 13:06:50;;;;;;;48.00;23.45;;;0.20;99.90;;;;;;4966127;28;20031;-91
2024/01/19 13:09:23;;;;;;;48.58;24.10;;;0.10;99.90;;;;;;4963927;28;20049;-91
2024/01/19 13:12:26;;;;;;;43.90;25.73;;;0.20;99.90;;;;;;4964842;28;20027;-91
2024/01/19 13:15:22;;;;;;;50.05;22.75;;;0.20;99.90;;;;;;4966210;28;20539;-89
2024/01/19 13:18:05;;;;;;;53.15;25.83;;;0.30;99.90;;;;;;4962223;28;20062;-89
2024/01/19 13:20:32;;;;;;;46.67;23.80;;;0.40;99.90;;;;;;4961207;28;20024;-89
2024/01/19 13:22:58;;;;;;;44.00;22.13;;;0.30;99.90;;;;;;4968043;28;20042;-89
2024/01/19 13:25:28;;;;;;;43.42;21.23;;;0.30;99.90;;;;;;4963139;28;20073;-92
2024/01/19 13:27:57;;;;;;;44.78;21.83;;;0.10;99.90;;;;;;4964333;28;20045;-89
2024/01/19 13:30:47;;;;;;;46.25;23.45;;;0.00;99.90;;;;;;4969512;28;20022;-89
2024/01/19 13:33:18;;;;;;;38.33;21.25;;;0.10;99.90;;;;;;4964337;28;20057;-90
2024/01/19 13:35:47;;;;;;;33.33;17.33;;;0.10;99.90;;;;;;4964118;28;20049;-91
2024/01/19 13:38:19;;;;;;;32.72;16.67;;;0.00;97.70;;;;;;4956217;28;20038;-90
2024/01/19 13:40:47;;;;;;;33.83;18.73;;;0.00;98.20;;;;;;4958822;28;20061;-91
2024/01/19 13:43:16;;;;;;;35.33;17.92;;;0.00;98.20;;;;;;4960746;28;20074;-90
2024/01/19 13:45:52;;;;;;;37.92;19.20;;;-0.10;98.80;;;;;;4955583;28;20090;-90
2024/01/19 13:48:22;;;;;;;38.40;17.70;;;-0.10;99.90;;;;;;4956633;28;20214;-90
2024/01/19 13:50:49;;;;;;;32.85;18.33;;;-0.10;98.90;;;;;;4968270;28;20031;-89
2024/01/19 13:53:28;;;;;;;34.58;17.95;;;-0.10;99.90;;;;;;4965281;28;20031;-90
2024/01/19 13:55:54;;;;;;;36.40;18.05;;;-0.10;99.80;;;;;;4960257;28;20066;-90
2024/01/19 13:58:23;;;;;;;33.33;18.90;;;0.00;99.90;;;;;;4974693;28;20091;-90
2024/01/19 14:01:27;;;;;;;41.08;18.85;;;-0.10;99.90;;;;;;4961737;28;20429;-90
2024/01/19 14:03:53;;;;;;;33.97;17.15;;;0.00;99.90;;;;;;4931996;28;20129;-89
2024/01/19 14:06:32;;;;;;;34.13;18.30;;;0.00;99.90;;;;;;4962869;28;20099;-89
2024/01/19 14:09:21;;;;;;;41.78;18.48;;;-0.20;99.90;;;;;;4948674;28;20053;-90
2024/01/19 14:12:44;;;;;;;44.22;24.48;;;-0.20;99.90;;;;;;4962309;28;20030;-90
2024/01/19 14:15:25;;;;;;;37.28;18.67;;;-0.20;99.90;;;;;;4958279;28;20042;-90
2024/01/19 14:17:55;;;;;;;;;;;-0.20;99.90;;;;;;4961516;28;20037;-90
2024/01/19 14:20:22;;;;;;;35.17;16.88;;;-0.20;99.90;;;;;;4971884;28;19957;-89
2024/01/19 14:23:25;;;;;;;44.28;18.92;;;-0.20;99.90;;;;;;4962935;28;20113;-90
2024/01/19 14:26:00;;;;;;;34.55;18.98;;;-0.20;99.90;;;;;;4954635;28;20323;-92
2024/01/19 14:28:28;;;;;;;45.17;20.15;;;-0.10;99.90;;;;;;4972960;28;20035;-90
2024/01/19 14:30:54;;;;;;;;;;;-0.10;99.90;;;;;;4966576;28;20073;-90
2024/01/19 14:33:26;;;;;;;45.30;22.08;;;0.00;99.90;;;;;;4980326;28;19978;-91
2024/01/19 14:35:55;;;;;;;41.92;28.08;;;-0.10;99.90;;;;;;4960843;28;20027;-90
2024/01/19 14:38:31;;;;;;;39.05;21.50;;;-0.20;99.90;;;;;;4963636;28;20031;-90
2024/01/19 14:41:00;;;;;;;43.90;24.85;;;-0.10;99.90;;;;;;4966919;28;20023;-89
2024/01/19 14:43:26;;;;;;;37.30;21.30;;;-0.20;99.90;;;;;;4957185;28;20046;-90
2024/01/19 14:46:09;;;;;;;45.88;22.42;;;-0.20;99.90;;;;;;4966248;28;20087;-89
2024/01/19 14:48:36;;;;;;;50.97;22.20;;;-0.20;99.90;;;;;;4955636;28;20046;-89
2024/01/19 14:51:02;;;;;;;48.28;23.92;;;-0.20;99.90;;;;;;4966736;28;20031;-91
2024/01/19 14:53:32;;;;;;;37.13;19.60;;;-0.20;99.90;;;;;;4965902;28;20045;-91
2024/01/19 14:56:01;;;;;;;48.90;27.75;;;-0.20;99.90;;;;;;4961753;28;20058;-91
2024/01/19 14:58:32;;;;;;;42.42;21.05;;;-0.30;99.90;;;;;;4973653;28;20039;-91
2024/01/19 15:00:58;;;;;;;35.33;19.27;;;-0.30;99.90;;;;;;4963716;28;20027;-90
2024/01/19 15:04:08;;;;;;;57.45;31.67;;;-0.20;99.90;;;;;;4961025;28;20316;-90
2024/01/19 15:06:42;;;;;;;47.63;22.52;;;-0.10;99.90;;;;;;4894995;28;20647;-90
2024/01/19 15:09:08;;;;;;;39.10;19.17;;;-0.10;99.90;;;;;;4956298;28;20098;-89
2024/01/19 15:11:37;;;;;;;35.53;14.88;;;-0.10;99.90;;;;;;4960593;28;20221;-89
2024/01/19 15:14:03;;;;;;;35.72;18.80;;;-0.20;99.90;;;;;;4966843;28;20034;-91
2024/01/19 15:16:29;;;;;;;39.95;19.88;;;-0.20;99.90;;;;;;4966112;28;20039;-89
2024/01/19 15:18:57;;;;;;;44.72;22.27;;;-0.30;99.90;;;;;;4963671;28;20031;-89
2024/01/19 15:21:23;;;;;;;40.17;21.80;;;-0.30;99.90;;;;;;4967995;28;20038;-91
2024/01/19 15:23:55;;;;;;;38.05;19.08;;;-0.30;99.90;;;;;;4969289;28;20042;-91
2024/01/19 15:26:42;;;;;;;42.55;21.90;;;-0.30;99.90;;;;;;4961924;28;20121;-90
2024/01/19 15:29:14;;;;;;;55.90;25.63;;;-0.30;99.90;;;;;;4963806;28;20105;-90
2024/01/19 15:32:21;;;;;;;53.30;30.50;;;-0.40;99.90;;;;;;4967114;28;20035;-91
2024/01/19 15:34:47;;;;;;;40.13;19.70;;;-0.40;99.90;;;;;;4917506;28;20126;-90
2024/01/19 15:37:46;;;;;;;33.45;16.45;;;-0.30;99.90;;;;;;4965830;28;20055;-89
2024/01/19 15:40:32;;;;;;;34.60;18.70;;;-0.30;99.90;;;;;;4965376;28;20046;-89
2024/01/19 15:43:02;;;;;;;35.88;17.95;;;-0.40;99.90;;;;;;4968276;28;20032;-89
2024/01/19 15:45:43;;;;;;;38.67;23.38;;;-0.40;99.90;;;;;;4966032;28;20027;-89
2024/01/19 15:48:12;;;;;;;38.13;20.55;;;-0.40;99.90;;;;;;4962809;28;20023;-89
2024/01/19 15:50:37;;;;;;;;;;;-0.40;99.90;;;;;;4966483;28;20137;-90
2024/01/19 15:53:07;;;;;;;38.20;19.02;;;-0.50;99.90;;;;;;4964881;28;19937;-89
2024/01/19 15:55:33;;;;;;;34.92;18.42;;;-0.50;99.90;;;;;;4969356;28;20089;-91
2024/01/19 15:58:01;;;;;;;32.60;17.27;;;-0.60;99.90;;;;;;4979195;28;20034;-90
2024/01/19 16:00:36;;;;;;;37.22;18.17;;;-0.60;99.90;;;;;;4968701;28;20054;-89
2024/01/19 16:03:03;;;;;;;32.30;15.77;;;-0.50;99.90;;;;;;4971124;28;20023;-90
2024/01/19 16:05:36;;;;;;;35.80;17.40;;;-0.60;99.90;;;;;;4969305;28;20060;-89
2024/01/19 16:08:08;;;;;;;39.33;17.60;;;-0.60;99.90;;;;;;4973758;28;20117;-89
2024/01/19 16:10:37;;;;;;;30.67;17.65;;;-0.60;99.90;;;;;;4971750;28;20034;-91
2024/01/19 16:13:08;;;;;;;32.00;17.80;;;-0.60;99.90;;;;;;4972816;28;20026;-91
2024/01/19 16:15:46;;;;;;;32.88;17.13;;;-0.60;99.90;;;;;;4970847;28;20027;-91
2024/01/19 16:18:14;;;;;;;34.35;17.50;;;-0.60;99.90;;;;;;4966729;28;20023;-91
2024/01/19 16:21:06;;;;;;;30.67;16.92;;;-0.70;99.90;;;;;;4971030;28;20035;-90
2024/01/19 16:24:26;;;;;;;33.55;19.20;;;-0.70;99.90;;;;;;4953111;28;20035;-90
2024/01/19 16:30:12;;;;;;;34.85;17.17;;;-0.80;99.90;;;;;;4941388;29;20031;-90
2024/01/19 16:32:54;;;;;;;36.25;14.98;;;-0.80;99.90;;;;;;4948558;29;20066;-91
2024/01/19 16:35:23;;;;;;;34.70;18.13;;;-0.80;99.90;;;;;;4945729;29;20103;-91
2024/01/19 16:38:50;;;;;;;35.78;20.08;;;-0.90;99.90;;;;;;4932894;29;20038;-91
2024/01/19 16:44:40;;;;;;;30.23;16.05;;;-1.00;99.90;;;;;;4959431;28;20066;-91
2024/01/19 16:47:29;;;;;;;33.05;18.20;;;-1.20;99.90;;;;;;4979805;28;20035;-91
2024/01/19 16:50:13;;;;;;;34.90;17.42;;;-1.30;99.90;;;;;;4966368;28;20093;-91
2024/01/19 16:52:54;;;;;;;36.70;18.38;;;-1.40;99.90;;;;;;4966118;28;20584;-90
2024/01/19 16:55:50;;;;;;;31.38;17.65;;;-1.50;99.90;;;;;;4974100;28;20035;-91
2024/01/19 16:58:20;;;;;;;33.15;16.63;;;-1.50;99.90;;;;;;4967807;28;20038;-90
2024/01/19 17:01:01;;;;;;;31.90;18.58;;;-1.60;99.90;;;;;;4974191;28;20027;-92
2024/01/19 17:03:40;;;;;;;;;;;;;;;;;;;;;
2024/01/19 17:06:20;;;;;;;42.47;22.33;;;-1.70;99.90;;;;;;4971362;28;20102;-90
2024/01/19 17:08:55;;;;;;;37.83;20.17;;;-1.70;99.90;;;;;;4968988;28;20038;-91
2024/01/19 17:11:50;;;;;;;30.63;15.10;;;-1.70;99.90;;;;;;4970216;28;20038;-92
2024/01/19 17:14:17;;;;;;;29.98;18.08;;;-1.70;99.90;;;;;;4970082;28;20045;-91
2024/01/19 17:17:07;;;;;;;32.78;17.85;;;-1.60;99.90;;;;;;4976802;28;20051;-92
2024/01/19 17:20:26;;;;;;;35.22;17.67;;;-1.70;99.90;;;;;;4971327;28;20035;-91
2024/01/19 17:23:05;;;;;;;;;;;;;;;;;;;;;
2024/01/19 17:26:03;;;;;;;37.05;21.10;;;-1.70;99.90;;;;;;4966687;28;20099;-91
2024/01/19 17:28:47;;;;;;;;;;;;;;;;;;;;;
2024/01/19 17:31:59;;;;;;;29.65;17.90;;;-1.60;99.90;;;;;;4972743;28;20114;-92
2024/01/19 17:35:20;;;;;;;33.90;14.35;;;-1.60;99.90;;;;;;4974699;28;20634;-91
2024/01/19 17:37:49;;;;;;;30.20;16.15;;;-1.70;99.90;;;;;;4963334;28;20027;-90
2024/01/19 17:40:21;;;;;;;25.90;17.10;;;-1.70;99.90;;;;;;4963467;28;20125;-90
2024/01/19 17:42:53;;;;;;;28.00;16.27;;;-1.70;99.90;;;;;;4984212;28;20027;-91